sensor_id;sensor_type;location;lat;lon;timestamp;pressure;altitude;pressure_sealevel;temperature
48894;BMP280;34710;35.798;139.446;2023-05-24T00:01:06;99987.98;;;20.09
48894;BMP280;34710;35.798;139.446;2023-05-24T00:03:31;99994.04;;;20.05
48894;BMP280;34710;35.798;139.446;2023-05-24T00:05:56;99988.85;;;20.86
48894;BMP280;34710;35.798;139.446;2023-05-24T00:08:21;99986.17;;;20.97
48894;BMP280;34710;35.798;139.446;2023-05-24T00:10:46;99980.15;;;21.47
48894;BMP280;34710;35.798;139.446;2023-05-24T00:13:11;99973.24;;;21.70
48894;BMP280;34710;35.798;139.446;2023-05-24T00:15:36;99987.10;;;21.04
48894;BMP280;34710;35.798;139.446;2023-05-24T00:18:01;99989.72;;;21.99
48894;BMP280;34710;35.798;139.446;2023-05-24T00:20:26;99994.12;;;21.64
48894;BMP280;34710;35.798;139.446;2023-05-24T00:22:52;99997.34;;;21.90
48894;BMP280;34710;35.798;139.446;2023-05-24T00:25:17;99995.19;;;22.21
48894;BMP280;34710;35.798;139.446;2023-05-24T00:27:42;99999.53;;;22.04
48894;BMP280;34710;35.798;139.446;2023-05-24T00:30:08;99995.22;;;22.16
48894;BMP280;34710;35.798;139.446;2023-05-24T00:32:32;100007.04;;;23.12
48894;BMP280;34710;35.798;139.446;2023-05-24T00:34:57;100002.66;;;22.56
48894;BMP280;34710;35.798;139.446;2023-05-24T00:37:22;100000.90;;;23.29
48894;BMP280;34710;35.798;139.446;2023-05-24T00:39:47;100003.58;;;22.88
48894;BMP280;34710;35.798;139.446;2023-05-24T00:42:12;100017.29;;;22.40
48894;BMP280;34710;35.798;139.446;2023-05-24T00:44:37;100008.98;;;22.07
48894;BMP280;34710;35.798;139.446;2023-05-24T00:47:02;100006.56;;;22.61
48894;BMP280;34710;35.798;139.446;2023-05-24T00:49:27;100013.99;;;22.80
48894;BMP280;34710;35.798;139.446;2023-05-24T00:51:53;100020.01;;;22.84
48894;BMP280;34710;35.798;139.446;2023-05-24T00:54:18;100020.01;;;23.55
48894;BMP280;34710;35.798;139.446;2023-05-24T00:56:43;100010.51;;;23.92
48894;BMP280;34710;35.798;139.446;2023-05-24T00:59:08;100017.29;;;23.18
48894;BMP280;34710;35.798;139.446;2023-05-24T01:01:33;100009.55;;;22.79
48894;BMP280;34710;35.798;139.446;2023-05-24T01:03:57;100017.86;;;22.98
48894;BMP280;34710;35.798;139.446;2023-05-24T01:06:23;100014.89;;;22.66
48894;BMP280;34710;35.798;139.446;2023-05-24T01:09:00;100020.74;;;23.30
48894;BMP280;34710;35.798;139.446;2023-05-24T01:11:20;100022.07;;;23.12
48894;BMP280;34710;35.798;139.446;2023-05-24T01:13:45;100015.73;;;23.49
48894;BMP280;34710;35.798;139.446;2023-05-24T01:16:09;100021.53;;;23.46
48894;BMP280;34710;35.798;139.446;2023-05-24T01:18:32;100013.94;;;23.24
48894;BMP280;34710;35.798;139.446;2023-05-24T01:20:59;100015.87;;;22.96
48894;BMP280;34710;35.798;139.446;2023-05-24T01:23:29;100007.57;;;24.04
48894;BMP280;34710;35.798;139.446;2023-05-24T01:25:53;100012.42;;;23.76
48894;BMP280;34710;35.798;139.446;2023-05-24T01:28:08;100011.33;;;24.53
48894;BMP280;34710;35.798;139.446;2023-05-24T01:30:34;100010.18;;;24.54
48894;BMP280;34710;35.798;139.446;2023-05-24T01:32:59;100006.45;;;24.24
48894;BMP280;34710;35.798;139.446;2023-05-24T01:35:23;100011.73;;;24.54
48894;BMP280;34710;35.798;139.446;2023-05-24T01:37:48;100001.82;;;24.29
48894;BMP280;34710;35.798;139.446;2023-05-24T01:40:14;100005.19;;;23.94
48894;BMP280;34710;35.798;139.446;2023-05-24T01:42:44;100000.81;;;24.74
48894;BMP280;34710;35.798;139.446;2023-05-24T01:45:07;100000.00;;;24.82
48894;BMP280;34710;35.798;139.446;2023-05-24T01:47:36;100002.70;;;25.03
48894;BMP280;34710;35.798;139.446;2023-05-24T01:49:56;100008.90;;;23.71
48894;BMP280;34710;35.798;139.446;2023-05-24T01:52:22;100016.05;;;25.03
48894;BMP280;34710;35.798;139.446;2023-05-24T01:54:46;100018.24;;;24.47
48894;BMP280;34710;35.798;139.446;2023-05-24T01:57:10;100022.00;;;24.39
48894;BMP280;34710;35.798;139.446;2023-05-24T01:59:35;100017.08;;;24.76
48894;BMP280;34710;35.798;139.446;2023-05-24T02:01:59;100015.47;;;24.44
48894;BMP280;34710;35.798;139.446;2023-05-24T02:04:24;100011.88;;;24.75
48894;BMP280;34710;35.798;139.446;2023-05-24T02:06:49;100011.89;;;24.80
48894;BMP280;34710;35.798;139.446;2023-05-24T02:09:14;100020.24;;;25.04
48894;BMP280;34710;35.798;139.446;2023-05-24T02:11:39;100023.92;;;24.72
48894;BMP280;34710;35.798;139.446;2023-05-24T02:14:04;100023.17;;;25.46
48894;BMP280;34710;35.798;139.446;2023-05-24T02:16:30;100036.44;;;24.98
48894;BMP280;34710;35.798;139.446;2023-05-24T02:18:54;100032.69;;;25.39
48894;BMP280;34710;35.798;139.446;2023-05-24T02:21:19;100031.26;;;24.85
48894;BMP280;34710;35.798;139.446;2023-05-24T02:23:44;100026.43;;;24.86
48894;BMP280;34710;35.798;139.446;2023-05-24T02:26:09;100029.04;;;24.95
48894;BMP280;34710;35.798;139.446;2023-05-24T02:28:35;100021.42;;;24.74
48894;BMP280;34710;35.798;139.446;2023-05-24T02:30:59;100024.80;;;24.89
48894;BMP280;34710;35.798;139.446;2023-05-24T02:33:25;100038.03;;;24.68
48894;BMP280;34710;35.798;139.446;2023-05-24T02:35:50;100023.34;;;24.84
48894;BMP280;34710;35.798;139.446;2023-05-24T02:38:15;100020.20;;;25.88
48894;BMP280;34710;35.798;139.446;2023-05-24T02:40:40;100024.09;;;25.79
48894;BMP280;34710;35.798;139.446;2023-05-24T02:43:05;100028.65;;;26.08
48894;BMP280;34710;35.798;139.446;2023-05-24T02:45:30;100026.29;;;26.00
48894;BMP280;34710;35.798;139.446;2023-05-24T02:47:56;100021.20;;;25.63
48894;BMP280;34710;35.798;139.446;2023-05-24T02:50:21;100025.41;;;26.13
48894;BMP280;34710;35.798;139.446;2023-05-24T02:52:46;100022.80;;;26.07
48894;BMP280;34710;35.798;139.446;2023-05-24T02:55:10;100021.23;;;25.93
48894;BMP280;34710;35.798;139.446;2023-05-24T02:57:36;100022.86;;;26.96
48894;BMP280;34710;35.798;139.446;2023-05-24T03:00:01;100015.39;;;27.26
48894;BMP280;34710;35.798;139.446;2023-05-24T03:02:25;100020.10;;;27.33
48894;BMP280;34710;35.798;139.446;2023-05-24T03:04:51;100008.49;;;27.06
48894;BMP280;34710;35.798;139.446;2023-05-24T03:07:16;100001.68;;;25.85
48894;BMP280;34710;35.798;139.446;2023-05-24T03:09:41;100008.85;;;25.83
48894;BMP280;34710;35.798;139.446;2023-05-24T03:12:06;100007.85;;;26.08
48894;BMP280;34710;35.798;139.446;2023-05-24T03:14:31;100005.25;;;26.44
48894;BMP280;34710;35.798;139.446;2023-05-24T03:16:56;100008.09;;;26.36
48894;BMP280;34710;35.798;139.446;2023-05-24T03:19:21;100018.14;;;26.33
48894;BMP280;34710;35.798;139.446;2023-05-24T03:21:46;100026.84;;;26.85
48894;BMP280;34710;35.798;139.446;2023-05-24T03:24:11;100021.42;;;27.10
48894;BMP280;34710;35.798;139.446;2023-05-24T03:26:36;100025.02;;;27.08
48894;BMP280;34710;35.798;139.446;2023-05-24T03:29:01;100022.20;;;27.75
48894;BMP280;34710;35.798;139.446;2023-05-24T03:31:26;100019.22;;;27.53
48894;BMP280;34710;35.798;139.446;2023-05-24T03:33:51;100018.94;;;27.77
48894;BMP280;34710;35.798;139.446;2023-05-24T03:36:16;100013.33;;;26.21
48894;BMP280;34710;35.798;139.446;2023-05-24T03:38:41;100005.42;;;27.92
48894;BMP280;34710;35.798;139.446;2023-05-24T03:41:06;100009.12;;;27.70
48894;BMP280;34710;35.798;139.446;2023-05-24T03:43:32;100004.12;;;27.02
48894;BMP280;34710;35.798;139.446;2023-05-24T03:45:57;99999.65;;;26.64
48894;BMP280;34710;35.798;139.446;2023-05-24T03:48:22;99993.88;;;26.81
48894;BMP280;34710;35.798;139.446;2023-05-24T03:50:47;99998.28;;;25.87
48894;BMP280;34710;35.798;139.446;2023-05-24T03:53:12;100005.62;;;26.48
48894;BMP280;34710;35.798;139.446;2023-05-24T03:55:37;100008.29;;;26.38
48894;BMP280;34710;35.798;139.446;2023-05-24T03:58:02;100009.69;;;26.63
48894;BMP280;34710;35.798;139.446;2023-05-24T04:00:27;100015.02;;;27.28
48894;BMP280;34710;35.798;139.446;2023-05-24T04:02:52;100019.50;;;27.72
48894;BMP280;34710;35.798;139.446;2023-05-24T04:05:17;100016.95;;;27.21
48894;BMP280;34710;35.798;139.446;2023-05-24T04:07:42;100011.08;;;26.27
48894;BMP280;34710;35.798;139.446;2023-05-24T04:10:08;100011.61;;;26.54
48894;BMP280;34710;35.798;139.446;2023-05-24T04:12:32;100004.68;;;26.25
48894;BMP280;34710;35.798;139.446;2023-05-24T04:14:57;100007.21;;;26.74
48894;BMP280;34710;35.798;139.446;2023-05-24T04:17:22;100009.00;;;25.98
48894;BMP280;34710;35.798;139.446;2023-05-24T04:19:47;100019.90;;;26.29
48894;BMP280;34710;35.798;139.446;2023-05-24T04:22:13;100010.30;;;26.94
48894;BMP280;34710;35.798;139.446;2023-05-24T04:24:37;100020.97;;;26.43
48894;BMP280;34710;35.798;139.446;2023-05-24T04:27:03;100014.84;;;27.01
48894;BMP280;34710;35.798;139.446;2023-05-24T04:29:28;100021.11;;;27.03
48894;BMP280;34710;35.798;139.446;2023-05-24T04:31:53;100024.40;;;27.15
48894;BMP280;34710;35.798;139.446;2023-05-24T04:34:17;100035.03;;;27.70
48894;BMP280;34710;35.798;139.446;2023-05-24T04:36:42;100048.61;;;27.20
48894;BMP280;34710;35.798;139.446;2023-05-24T04:39:07;100043.02;;;26.44
48894;BMP280;34710;35.798;139.446;2023-05-24T04:41:33;100040.32;;;27.17
48894;BMP280;34710;35.798;139.446;2023-05-24T04:43:58;100032.44;;;27.64
48894;BMP280;34710;35.798;139.446;2023-05-24T04:46:23;100031.62;;;28.24
48894;BMP280;34710;35.798;139.446;2023-05-24T04:48:48;100027.33;;;26.86
48894;BMP280;34710;35.798;139.446;2023-05-24T04:51:13;100030.33;;;27.84
48894;BMP280;34710;35.798;139.446;2023-05-24T04:53:38;100035.15;;;27.87
48894;BMP280;34710;35.798;139.446;2023-05-24T04:56:03;100036.64;;;27.10
48894;BMP280;34710;35.798;139.446;2023-05-24T04:58:28;100041.80;;;26.69
48894;BMP280;34710;35.798;139.446;2023-05-24T05:00:54;100039.67;;;27.92
48894;BMP280;34710;35.798;139.446;2023-05-24T05:03:18;100041.94;;;26.85
48894;BMP280;34710;35.798;139.446;2023-05-24T05:05:43;100051.60;;;27.31
48894;BMP280;34710;35.798;139.446;2023-05-24T05:08:08;100047.36;;;27.95
48894;BMP280;34710;35.798;139.446;2023-05-24T05:10:33;100053.19;;;26.62
48894;BMP280;34710;35.798;139.446;2023-05-24T05:12:58;100065.17;;;26.54
48894;BMP280;34710;35.798;139.446;2023-05-24T05:15:24;100070.23;;;27.06
48894;BMP280;34710;35.798;139.446;2023-05-24T05:17:48;100068.00;;;25.95
48894;BMP280;34710;35.798;139.446;2023-05-24T05:20:13;100067.20;;;26.13
48894;BMP280;34710;35.798;139.446;2023-05-24T05:22:41;100073.13;;;26.97
48894;BMP280;34710;35.798;139.446;2023-05-24T05:25:04;100071.71;;;27.11
48894;BMP280;34710;35.798;139.446;2023-05-24T05:27:29;100077.71;;;27.21
48894;BMP280;34710;35.798;139.446;2023-05-24T05:29:54;100070.14;;;27.73
48894;BMP280;34710;35.798;139.446;2023-05-24T05:32:19;100072.32;;;27.53
48894;BMP280;34710;35.798;139.446;2023-05-24T05:34:44;100076.77;;;26.71
48894;BMP280;34710;35.798;139.446;2023-05-24T05:37:09;100073.66;;;26.88
48894;BMP280;34710;35.798;139.446;2023-05-24T05:39:34;100070.84;;;26.96
48894;BMP280;34710;35.798;139.446;2023-05-24T05:42:00;100078.70;;;27.37
48894;BMP280;34710;35.798;139.446;2023-05-24T05:44:24;100080.48;;;26.82
48894;BMP280;34710;35.798;139.446;2023-05-24T05:46:49;100085.61;;;26.38
48894;BMP280;34710;35.798;139.446;2023-05-24T05:49:14;100077.52;;;26.39
48894;BMP280;34710;35.798;139.446;2023-05-24T05:51:39;100083.58;;;26.97
48894;BMP280;34710;35.798;139.446;2023-05-24T05:54:05;100087.73;;;26.92
48894;BMP280;34710;35.798;139.446;2023-05-24T05:56:30;100084.68;;;26.55
48894;BMP280;34710;35.798;139.446;2023-05-24T05:58:54;100091.49;;;26.22
48894;BMP280;34710;35.798;139.446;2023-05-24T06:01:20;100097.01;;;26.28
48894;BMP280;34710;35.798;139.446;2023-05-24T06:03:45;100098.07;;;25.76
48894;BMP280;34710;35.798;139.446;2023-05-24T06:06:10;100096.24;;;26.13
48894;BMP280;34710;35.798;139.446;2023-05-24T06:08:35;100094.87;;;26.28
48894;BMP280;34710;35.798;139.446;2023-05-24T06:11:00;100102.40;;;26.69
48894;BMP280;34710;35.798;139.446;2023-05-24T06:13:25;100105.44;;;27.06
48894;BMP280;34710;35.798;139.446;2023-05-24T06:15:50;100104.08;;;27.01
48894;BMP280;34710;35.798;139.446;2023-05-24T06:18:15;100109.80;;;25.41
48894;BMP280;34710;35.798;139.446;2023-05-24T06:20:41;100109.85;;;26.03
48894;BMP280;34710;35.798;139.446;2023-05-24T06:23:06;100107.84;;;26.22
48894;BMP280;34710;35.798;139.446;2023-05-24T06:25:31;100106.37;;;25.89
48894;BMP280;34710;35.798;139.446;2023-05-24T06:27:56;100114.28;;;25.78
48894;BMP280;34710;35.798;139.446;2023-05-24T06:30:21;100118.49;;;26.53
48894;BMP280;34710;35.798;139.446;2023-05-24T06:32:46;100122.12;;;25.82
48894;BMP280;34710;35.798;139.446;2023-05-24T06:35:11;100136.80;;;25.43
48894;BMP280;34710;35.798;139.446;2023-05-24T06:37:36;100142.72;;;25.73
48894;BMP280;34710;35.798;139.446;2023-05-24T06:40:01;100146.18;;;25.86
48894;BMP280;34710;35.798;139.446;2023-05-24T06:42:27;100147.02;;;25.80
48894;BMP280;34710;35.798;139.446;2023-05-24T06:44:51;100141.29;;;25.71
48894;BMP280;34710;35.798;139.446;2023-05-24T06:47:16;100139.43;;;25.82
48894;BMP280;34710;35.798;139.446;2023-05-24T06:49:42;100149.01;;;25.72
48894;BMP280;34710;35.798;139.446;2023-05-24T06:52:07;100148.67;;;25.12
48894;BMP280;34710;35.798;139.446;2023-05-24T06:54:32;100136.02;;;25.41
48894;BMP280;34710;35.798;139.446;2023-05-24T06:56:57;100139.90;;;25.02
48894;BMP280;34710;35.798;139.446;2023-05-24T06:59:22;100136.26;;;24.97
48894;BMP280;34710;35.798;139.446;2023-05-24T07:01:47;100146.39;;;25.03
48894;BMP280;34710;35.798;139.446;2023-05-24T07:04:12;100148.71;;;24.67
48894;BMP280;34710;35.798;139.446;2023-05-24T07:06:37;100145.46;;;24.68
48894;BMP280;34710;35.798;139.446;2023-05-24T07:09:02;100148.39;;;24.71
48894;BMP280;34710;35.798;139.446;2023-05-24T07:11:27;100154.49;;;25.14
48894;BMP280;34710;35.798;139.446;2023-05-24T07:13:52;100153.70;;;24.66
48894;BMP280;34710;35.798;139.446;2023-05-24T07:16:17;100169.06;;;24.68
48894;BMP280;34710;35.798;139.446;2023-05-24T07:18:42;100177.26;;;24.29
48894;BMP280;34710;35.798;139.446;2023-05-24T07:21:07;100179.84;;;24.62
48894;BMP280;34710;35.798;139.446;2023-05-24T07:23:33;100186.18;;;24.16
48894;BMP280;34710;35.798;139.446;2023-05-24T07:25:57;100193.90;;;24.33
48894;BMP280;34710;35.798;139.446;2023-05-24T07:28:23;100199.98;;;24.88
48894;BMP280;34710;35.798;139.446;2023-05-24T07:30:47;100201.75;;;24.83
48894;BMP280;34710;35.798;139.446;2023-05-24T07:33:13;100204.75;;;24.75
48894;BMP280;34710;35.798;139.446;2023-05-24T07:35:38;100211.39;;;24.53
48894;BMP280;34710;35.798;139.446;2023-05-24T07:38:03;100213.16;;;24.75
48894;BMP280;34710;35.798;139.446;2023-05-24T07:40:28;100218.10;;;24.93
48894;BMP280;34710;35.798;139.446;2023-05-24T07:42:53;100217.18;;;25.09
48894;BMP280;34710;35.798;139.446;2023-05-24T07:45:18;100220.74;;;25.02
48894;BMP280;34710;35.798;139.446;2023-05-24T07:47:43;100219.85;;;24.79
48894;BMP280;34710;35.798;139.446;2023-05-24T07:50:09;100228.46;;;25.30
48894;BMP280;34710;35.798;139.446;2023-05-24T07:52:34;100235.34;;;24.63
48894;BMP280;34710;35.798;139.446;2023-05-24T07:54:58;100238.21;;;24.85
48894;BMP280;34710;35.798;139.446;2023-05-24T07:57:23;100245.34;;;24.69
48894;BMP280;34710;35.798;139.446;2023-05-24T07:59:49;100242.87;;;24.21
48894;BMP280;34710;35.798;139.446;2023-05-24T08:02:14;100253.76;;;24.53
48894;BMP280;34710;35.798;139.446;2023-05-24T08:04:39;100264.25;;;24.87
48894;BMP280;34710;35.798;139.446;2023-05-24T08:07:04;100272.30;;;24.77
48894;BMP280;34710;35.798;139.446;2023-05-24T08:09:29;100278.73;;;24.19
48894;BMP280;34710;35.798;139.446;2023-05-24T08:11:55;100289.35;;;24.29
48894;BMP280;34710;35.798;139.446;2023-05-24T08:14:19;100296.79;;;23.97
48894;BMP280;34710;35.798;139.446;2023-05-24T08:16:44;100304.85;;;23.68
48894;BMP280;34710;35.798;139.446;2023-05-24T08:19:09;100313.37;;;24.55
48894;BMP280;34710;35.798;139.446;2023-05-24T08:21:34;100316.31;;;24.43
48894;BMP280;34710;35.798;139.446;2023-05-24T08:24:00;100320.33;;;24.08
48894;BMP280;34710;35.798;139.446;2023-05-24T08:26:25;100326.65;;;24.01
48894;BMP280;34710;35.798;139.446;2023-05-24T08:28:50;100336.93;;;24.46
48894;BMP280;34710;35.798;139.446;2023-05-24T08:31:15;100339.74;;;23.95
48894;BMP280;34710;35.798;139.446;2023-05-24T08:33:40;100342.35;;;24.43
48894;BMP280;34710;35.798;139.446;2023-05-24T08:36:06;100345.00;;;24.20
48894;BMP280;34710;35.798;139.446;2023-05-24T08:38:30;100353.16;;;24.57
48894;BMP280;34710;35.798;139.446;2023-05-24T08:40:55;100358.16;;;25.01
48894;BMP280;34710;35.798;139.446;2023-05-24T08:43:21;100362.99;;;24.70
48894;BMP280;34710;35.798;139.446;2023-05-24T08:45:45;100361.33;;;24.64
48894;BMP280;34710;35.798;139.446;2023-05-24T08:48:11;100366.29;;;24.29
48894;BMP280;34710;35.798;139.446;2023-05-24T08:50:36;100366.68;;;23.85
48894;BMP280;34710;35.798;139.446;2023-05-24T08:53:01;100370.74;;;24.33
48894;BMP280;34710;35.798;139.446;2023-05-24T08:55:26;100376.20;;;24.60
48894;BMP280;34710;35.798;139.446;2023-05-24T08:57:51;100379.88;;;24.13
48894;BMP280;34710;35.798;139.446;2023-05-24T09:00:17;100381.91;;;23.80
48894;BMP280;34710;35.798;139.446;2023-05-24T09:02:42;100384.75;;;23.51
48894;BMP280;34710;35.798;139.446;2023-05-24T09:05:10;100389.57;;;23.41
48894;BMP280;34710;35.798;139.446;2023-05-24T09:07:32;100396.15;;;22.46
48894;BMP280;34710;35.798;139.446;2023-05-24T09:09:59;100398.28;;;23.27
48894;BMP280;34710;35.798;139.446;2023-05-24T09:12:22;100401.19;;;23.12
48894;BMP280;34710;35.798;139.446;2023-05-24T09:14:47;100400.68;;;23.29
48894;BMP280;34710;35.798;139.446;2023-05-24T09:17:12;100410.24;;;23.36
48894;BMP280;34710;35.798;139.446;2023-05-24T09:19:36;100414.63;;;23.17
48894;BMP280;34710;35.798;139.446;2023-05-24T09:22:02;100424.24;;;22.99
48894;BMP280;34710;35.798;139.446;2023-05-24T09:24:27;100432.10;;;22.58
48894;BMP280;34710;35.798;139.446;2023-05-24T09:26:52;100437.36;;;22.60
48894;BMP280;34710;35.798;139.446;2023-05-24T09:29:21;100441.40;;;22.33
48894;BMP280;34710;35.798;139.446;2023-05-24T09:31:43;100449.35;;;22.84
48894;BMP280;34710;35.798;139.446;2023-05-24T09:34:12;100455.12;;;22.24
48894;BMP280;34710;35.798;139.446;2023-05-24T09:36:34;100453.96;;;22.18
48894;BMP280;34710;35.798;139.446;2023-05-24T09:39:07;100458.91;;;22.98
48894;BMP280;34710;35.798;139.446;2023-05-24T09:41:23;100464.92;;;22.91
48894;BMP280;34710;35.798;139.446;2023-05-24T09:43:49;100469.34;;;22.91
48894;BMP280;34710;35.798;139.446;2023-05-24T09:46:18;100476.28;;;22.10
48894;BMP280;34710;35.798;139.446;2023-05-24T09:48:39;100480.24;;;22.13
48894;BMP280;34710;35.798;139.446;2023-05-24T09:51:06;100488.86;;;22.31
48894;BMP280;34710;35.798;139.446;2023-05-24T09:53:29;100492.88;;;22.59
48894;BMP280;34710;35.798;139.446;2023-05-24T09:55:55;100493.47;;;22.49
48894;BMP280;34710;35.798;139.446;2023-05-24T09:58:20;100494.40;;;21.87
48894;BMP280;34710;35.798;139.446;2023-05-24T10:00:44;100498.70;;;22.51
48894;BMP280;34710;35.798;139.446;2023-05-24T10:03:10;100505.41;;;22.04
48894;BMP280;34710;35.798;139.446;2023-05-24T10:05:35;100514.45;;;22.48
48894;BMP280;34710;35.798;139.446;2023-05-24T10:08:00;100518.76;;;22.78
48894;BMP280;34710;35.798;139.446;2023-05-24T10:10:28;100523.61;;;22.11
48894;BMP280;34710;35.798;139.446;2023-05-24T10:12:50;100530.68;;;22.64
48894;BMP280;34710;35.798;139.446;2023-05-24T10:15:15;100529.11;;;22.29
48894;BMP280;34710;35.798;139.446;2023-05-24T10:17:40;100530.39;;;22.18
48894;BMP280;34710;35.798;139.446;2023-05-24T10:20:07;100534.78;;;21.08
48894;BMP280;34710;35.798;139.446;2023-05-24T10:22:31;100540.29;;;22.15
48894;BMP280;34710;35.798;139.446;2023-05-24T10:24:57;100547.21;;;21.77
48894;BMP280;34710;35.798;139.446;2023-05-24T10:27:23;100552.03;;;21.72
48894;BMP280;34710;35.798;139.446;2023-05-24T10:29:53;100559.52;;;22.05
48894;BMP280;34710;35.798;139.446;2023-05-24T10:32:12;100565.90;;;22.17
48894;BMP280;34710;35.798;139.446;2023-05-24T10:34:36;100570.69;;;21.87
48894;BMP280;34710;35.798;139.446;2023-05-24T10:37:01;100570.97;;;22.00
48894;BMP280;34710;35.798;139.446;2023-05-24T10:39:28;100571.68;;;21.87
48894;BMP280;34710;35.798;139.446;2023-05-24T10:41:55;100573.26;;;21.78
48894;BMP280;34710;35.798;139.446;2023-05-24T10:44:19;100574.66;;;21.50
48894;BMP280;34710;35.798;139.446;2023-05-24T10:49:07;100587.47;;;21.20
48894;BMP280;34710;35.798;139.446;2023-05-24T10:51:34;100592.48;;;21.01
48894;BMP280;34710;35.798;139.446;2023-05-24T10:53:57;100596.19;;;20.92
48894;BMP280;34710;35.798;139.446;2023-05-24T10:56:22;100603.12;;;20.87
48894;BMP280;34710;35.798;139.446;2023-05-24T10:58:58;100616.14;;;21.45
48894;BMP280;34710;35.798;139.446;2023-05-24T11:01:17;100627.14;;;20.91
48894;BMP280;34710;35.798;139.446;2023-05-24T11:03:41;100637.61;;;20.98
48894;BMP280;34710;35.798;139.446;2023-05-24T11:06:03;100644.10;;;20.58
48894;BMP280;34710;35.798;139.446;2023-05-24T11:08:31;100648.09;;;20.85
48894;BMP280;34710;35.798;139.446;2023-05-24T11:11:03;100653.79;;;21.17
48894;BMP280;34710;35.798;139.446;2023-05-24T11:13:19;100660.80;;;20.92
48894;BMP280;34710;35.798;139.446;2023-05-24T11:15:49;100668.56;;;20.50
48894;BMP280;34710;35.798;139.446;2023-05-24T11:18:15;100676.89;;;20.72
48894;BMP280;34710;35.798;139.446;2023-05-24T11:20:34;100688.69;;;20.76
48894;BMP280;34710;35.798;139.446;2023-05-24T11:22:59;100696.66;;;20.75
48894;BMP280;34710;35.798;139.446;2023-05-24T11:25:24;100702.04;;;20.35
48894;BMP280;34710;35.798;139.446;2023-05-24T11:27:49;100704.23;;;20.21
48894;BMP280;34710;35.798;139.446;2023-05-24T11:30:15;100705.46;;;20.11
48894;BMP280;34710;35.798;139.446;2023-05-24T11:32:39;100705.51;;;19.96
48894;BMP280;34710;35.798;139.446;2023-05-24T11:35:05;100706.02;;;19.45
48894;BMP280;34710;35.798;139.446;2023-05-24T11:37:30;100705.34;;;20.07
48894;BMP280;34710;35.798;139.446;2023-05-24T11:39:55;100716.09;;;20.32
48894;BMP280;34710;35.798;139.446;2023-05-24T11:42:21;100719.51;;;19.77
48894;BMP280;34710;35.798;139.446;2023-05-24T11:44:48;100722.49;;;20.18
48894;BMP280;34710;35.798;139.446;2023-05-24T11:47:10;100731.38;;;19.94
48894;BMP280;34710;35.798;139.446;2023-05-24T11:49:36;100731.64;;;20.27
48894;BMP280;34710;35.798;139.446;2023-05-24T11:52:01;100736.00;;;19.53
48894;BMP280;34710;35.798;139.446;2023-05-24T11:54:27;100738.34;;;19.77
48894;BMP280;34710;35.798;139.446;2023-05-24T11:56:52;100741.52;;;20.44
48894;BMP280;34710;35.798;139.446;2023-05-24T11:59:17;100750.89;;;19.97
48894;BMP280;34710;35.798;139.446;2023-05-24T12:01:41;100761.12;;;19.79
48894;BMP280;34710;35.798;139.446;2023-05-24T12:04:06;100769.64;;;19.83
48894;BMP280;34710;35.798;139.446;2023-05-24T12:06:37;100772.48;;;20.04
48894;BMP280;34710;35.798;139.446;2023-05-24T12:08:56;100776.86;;;19.56
48894;BMP280;34710;35.798;139.446;2023-05-24T12:11:22;100777.78;;;19.58
48894;BMP280;34710;35.798;139.446;2023-05-24T12:13:47;100778.93;;;19.40
48894;BMP280;34710;35.798;139.446;2023-05-24T12:16:12;100776.52;;;19.94
48894;BMP280;34710;35.798;139.446;2023-05-24T12:18:37;100785.09;;;19.65
48894;BMP280;34710;35.798;139.446;2023-05-24T12:21:08;100799.35;;;19.46
48894;BMP280;34710;35.798;139.446;2023-05-24T12:23:28;100807.88;;;19.36
48894;BMP280;34710;35.798;139.446;2023-05-24T12:25:57;100819.09;;;19.30
48894;BMP280;34710;35.798;139.446;2023-05-24T12:28:21;100832.10;;;19.49
48894;BMP280;34710;35.798;139.446;2023-05-24T12:30:43;100836.31;;;19.75
48894;BMP280;34710;35.798;139.446;2023-05-24T12:33:08;100840.87;;;19.26
48894;BMP280;34710;35.798;139.446;2023-05-24T12:35:33;100835.25;;;19.49
48894;BMP280;34710;35.798;139.446;2023-05-24T12:38:00;100835.99;;;19.72
48894;BMP280;34710;35.798;139.446;2023-05-24T12:40:23;100842.79;;;19.21
48894;BMP280;34710;35.798;139.446;2023-05-24T12:42:51;100847.49;;;19.21
48894;BMP280;34710;35.798;139.446;2023-05-24T12:45:14;100853.51;;;18.26
48894;BMP280;34710;35.798;139.446;2023-05-24T12:47:38;100856.30;;;18.93
48894;BMP280;34710;35.798;139.446;2023-05-24T12:50:04;100855.02;;;19.10
48894;BMP280;34710;35.798;139.446;2023-05-24T12:52:29;100848.53;;;18.99
48894;BMP280;34710;35.798;139.446;2023-05-24T12:54:54;100845.40;;;19.39
48894;BMP280;34710;35.798;139.446;2023-05-24T12:57:19;100844.13;;;18.96
48894;BMP280;34710;35.798;139.446;2023-05-24T12:59:44;100843.51;;;18.92
48894;BMP280;34710;35.798;139.446;2023-05-24T13:02:09;100841.31;;;19.11
48894;BMP280;34710;35.798;139.446;2023-05-24T13:04:34;100841.49;;;19.17
48894;BMP280;34710;35.798;139.446;2023-05-24T13:07:00;100845.51;;;18.15
48894;BMP280;34710;35.798;139.446;2023-05-24T13:09:25;100853.11;;;19.04
48894;BMP280;34710;35.798;139.446;2023-05-24T13:11:50;100858.93;;;18.88
48894;BMP280;34710;35.798;139.446;2023-05-24T13:14:15;100861.09;;;18.80
48894;BMP280;34710;35.798;139.446;2023-05-24T13:16:40;100870.86;;;18.77
48894;BMP280;34710;35.798;139.446;2023-05-24T13:19:05;100878.25;;;18.68
48894;BMP280;34710;35.798;139.446;2023-05-24T13:21:31;100879.71;;;18.87
48894;BMP280;34710;35.798;139.446;2023-05-24T13:23:55;100884.16;;;19.02